createdAt,value
2019-02-25T00:00:33.232Z,7.87
2019-02-25T00:03:01.505Z,5.20
2019-02-25T00:05:29.750Z,7.00
2019-02-25T00:07:58.039Z,7.35
2019-02-25T00:10:26.286Z,6.53
2019-02-25T00:12:54.521Z,6.87
2019-02-25T00:15:22.760Z,8.03
2019-02-25T00:17:50.979Z,6.83
2019-02-25T00:20:19.220Z,5.78
2019-02-25T00:22:47.447Z,7.15
2019-02-25T00:25:15.679Z,7.22
2019-02-25T00:27:43.990Z,5.10
2019-02-25T00:30:13.688Z,7.95
2019-02-25T00:32:41.936Z,5.53
2019-02-25T00:35:10.147Z,7.10
2019-02-25T00:37:38.372Z,6.83
2019-02-25T00:40:08.853Z,5.62
2019-02-25T00:42:37.099Z,5.42
2019-02-25T00:45:08.566Z,7.67
2019-02-25T00:47:36.930Z,8.03
2019-02-25T00:50:11.306Z,7.37
2019-02-25T00:52:39.628Z,5.35
2019-02-25T00:55:08.721Z,7.60
2019-02-25T00:57:36.947Z,6.53
2019-02-25T01:00:08.445Z,7.03
2019-02-25T01:02:36.684Z,6.50
2019-02-25T01:05:05.753Z,5.03
2019-02-25T01:07:34.008Z,6.15
2019-02-25T01:10:02.253Z,8.03
2019-02-25T01:12:30.479Z,5.92
2019-02-25T01:14:58.702Z,6.33
2019-02-25T01:17:26.943Z,7.30
2019-02-25T01:19:55.185Z,5.15
2019-02-25T01:22:23.423Z,7.05
2019-02-25T01:24:51.671Z,6.20
2019-02-25T01:27:19.902Z,6.60
2019-02-25T01:29:48.130Z,6.78
2019-02-25T01:32:16.364Z,8.13
2019-02-25T01:34:44.624Z,5.85
2019-02-25T01:37:12.893Z,6.35
2019-02-25T01:39:41.181Z,7.62
2019-02-25T01:42:09.409Z,4.90
2019-02-25T01:44:37.671Z,9.93
2019-02-25T01:47:05.887Z,8.08
2019-02-25T01:49:34.109Z,5.87
2019-02-25T01:52:02.348Z,5.62
2019-02-25T01:54:30.568Z,6.92
2019-02-25T01:56:58.825Z,4.62
2019-02-25T01:59:27.056Z,6.58
2019-02-25T02:01:55.277Z,5.65
2019-02-25T02:04:23.520Z,5.75
2019-02-25T02:06:51.771Z,4.83
2019-02-25T02:09:20.008Z,6.58
2019-02-25T02:11:48.227Z,5.45
2019-02-25T02:14:16.467Z,6.60
2019-02-25T02:16:44.686Z,7.75
2019-02-25T02:19:12.916Z,8.85
2019-02-25T02:21:41.149Z,12.28
2019-02-25T02:24:09.407Z,5.15
2019-02-25T02:26:37.630Z,8.48
2019-02-25T02:29:05.880Z,7.45
2019-02-25T02:31:34.168Z,5.62
2019-02-25T02:34:02.440Z,5.30
2019-02-25T02:36:30.704Z,8.45
2019-02-25T02:38:59.027Z,5.67
2019-02-25T02:41:27.280Z,7.40
2019-02-25T02:43:55.503Z,5.50
2019-02-25T02:46:29.639Z,6.03
2019-02-25T02:49:01.137Z,8.03
2019-02-25T02:51:29.390Z,7.42
2019-02-25T02:53:57.630Z,10.50
2019-02-25T02:56:25.872Z,5.03
2019-02-25T02:58:54.083Z,8.75
2019-02-25T03:01:22.340Z,5.12
2019-02-25T03:03:50.565Z,5.17
2019-02-25T03:06:18.811Z,6.80
2019-02-25T03:08:47.047Z,5.17
2019-02-25T03:11:15.270Z,6.35
2019-02-25T03:13:43.540Z,10.15
2019-02-25T03:16:11.755Z,4.90
2019-02-25T03:18:40.041Z,8.35
2019-02-25T03:21:08.249Z,6.10
2019-02-25T03:23:36.497Z,3.58
2019-02-25T03:26:04.725Z,5.05
2019-02-25T03:28:32.952Z,4.75
2019-02-25T03:31:01.207Z,5.58
2019-02-25T03:33:29.470Z,5.20
2019-02-25T03:35:57.769Z,9.68
2019-02-25T03:38:26.014Z,7.12
2019-02-25T03:40:54.255Z,4.67
2019-02-25T03:43:22.483Z,4.08
2019-02-25T03:45:50.727Z,5.97
2019-02-25T03:48:18.979Z,4.15
2019-02-25T03:50:47.216Z,5.25
2019-02-25T03:53:15.431Z,6.87
2019-02-25T03:55:43.664Z,4.85
2019-02-25T03:58:11.913Z,4.80
2019-02-25T04:00:40.123Z,5.35
2019-02-25T04:03:08.381Z,6.83
2019-02-25T04:05:36.598Z,5.45
2019-02-25T04:08:04.830Z,7.72
2019-02-25T04:10:33.147Z,6.85
2019-02-25T04:13:01.401Z,6.85
2019-02-25T04:15:33.915Z,6.40
2019-02-25T04:18:02.163Z,8.95
2019-02-25T04:20:30.396Z,6.65
2019-02-25T04:22:58.656Z,8.68
2019-02-25T04:25:26.964Z,7.42
2019-02-25T04:27:55.202Z,8.73
2019-02-25T04:30:23.457Z,6.75
2019-02-25T04:32:51.666Z,7.33
2019-02-25T04:35:19.911Z,5.47
2019-02-25T04:37:48.135Z,8.10
2019-02-25T04:40:16.381Z,7.17
2019-02-25T04:42:44.598Z,8.45
2019-02-25T04:45:20.270Z,14.05
2019-02-25T04:47:48.597Z,7.35
2019-02-25T04:50:16.866Z,8.50
2019-02-25T04:52:45.111Z,13.20
2019-02-25T04:55:14.374Z,7.92
2019-02-25T04:57:42.616Z,9.55
2019-02-25T05:00:16.727Z,7.75
2019-02-25T05:02:44.970Z,10.65
2019-02-25T05:05:13.193Z,6.72
2019-02-25T05:07:41.432Z,10.60
2019-02-25T05:10:12.304Z,11.85
2019-02-25T05:12:42.176Z,8.38
2019-02-25T05:15:12.115Z,5.45
2019-02-25T05:17:40.344Z,7.70
2019-02-25T05:20:08.847Z,8.40
2019-02-25T05:22:37.681Z,7.62
2019-02-25T05:25:10.873Z,4.92
2019-02-25T05:27:39.093Z,5.67
2019-02-25T05:30:10.601Z,6.20
2019-02-25T05:32:38.859Z,7.05
2019-02-25T05:35:09.204Z,7.20
2019-02-25T05:37:37.442Z,8.00
2019-02-25T05:40:17.195Z,9.05
2019-02-25T05:42:45.400Z,8.03
2019-02-25T05:45:14.473Z,9.28
2019-02-25T05:47:42.711Z,7.03
2019-02-25T05:50:18.990Z,8.83
2019-02-25T05:52:47.237Z,8.13
2019-02-25T05:55:17.145Z,5.83
2019-02-25T05:57:45.398Z,6.85
2019-02-25T06:00:19.439Z,7.42
2019-02-25T06:02:47.695Z,8.98
2019-02-25T06:05:15.945Z,5.70
2019-02-25T06:07:44.162Z,8.35
2019-02-25T06:10:13.748Z,12.65
2019-02-25T06:12:41.984Z,6.70
2019-02-25T06:15:12.446Z,5.08
2019-02-25T06:17:40.698Z,8.90
2019-02-25T06:20:11.374Z,5.53
2019-02-25T06:22:39.623Z,5.40
2019-02-25T06:25:09.890Z,9.43
2019-02-25T06:27:38.133Z,9.33
2019-02-25T06:30:15.676Z,5.92
2019-02-25T06:32:43.904Z,7.47
2019-02-25T06:35:12.218Z,9.98
2019-02-25T06:37:40.459Z,11.80
2019-02-25T06:40:20.671Z,9.70
2019-02-25T06:42:48.994Z,7.50
2019-02-25T06:45:31.690Z,8.43
2019-02-25T06:47:59.932Z,8.78
2019-02-25T06:50:28.172Z,8.98
2019-02-25T06:52:56.406Z,9.70
2019-02-25T06:55:24.640Z,8.85
2019-02-25T06:57:52.893Z,9.10
2019-02-25T07:00:22.143Z,8.18
2019-02-25T07:02:50.378Z,9.18
2019-02-25T07:05:23.042Z,7.65
2019-02-25T07:07:58.387Z,9.20
2019-02-25T07:10:37.503Z,9.45
2019-02-25T07:13:07.381Z,11.75
2019-02-25T07:15:37.235Z,8.35
2019-02-25T07:18:07.113Z,7.90
2019-02-25T07:20:36.993Z,9.53
2019-02-25T07:23:09.869Z,9.75
2019-02-25T07:25:39.732Z,14.70
2019-02-25T07:28:18.781Z,29.23
2019-02-25T07:30:48.675Z,29.63
2019-02-25T07:33:18.558Z,29.42
2019-02-25T07:35:48.442Z,34.67
2019-02-25T07:38:24.142Z,17.50
2019-02-25T07:40:56.752Z,18.50
2019-02-25T07:43:35.719Z,17.35
2019-02-25T07:46:11.341Z,49.03
2019-02-25T07:48:42.350Z,29.55
2019-02-25T07:51:24.337Z,47.25
2019-02-25T07:53:54.222Z,35.68
2019-02-25T07:56:33.393Z,14.35
2019-02-25T07:59:12.315Z,13.10
2019-02-25T08:01:51.049Z,13.35
2019-02-25T08:04:32.754Z,35.38
2019-02-25T08:07:02.635Z,40.98
2019-02-25T08:09:32.494Z,56.02
2019-02-25T08:12:08.545Z,121.65
2019-02-25T08:14:56.526Z,23.05
2019-02-25T08:17:32.609Z,115.82
2019-02-25T08:20:05.454Z,49.70
2019-02-25T08:22:41.058Z,30.57
2019-02-25T08:25:23.204Z,17.80
2019-02-25T08:27:59.081Z,21.70
2019-02-25T08:30:28.974Z,31.65
2019-02-25T08:33:01.534Z,12.13
2019-02-25T08:35:48.957Z,8.48
2019-02-25T08:38:25.108Z,34.30
2019-02-25T08:41:03.429Z,13.75
2019-02-25T08:43:33.291Z,11.80
2019-02-25T08:46:18.477Z,11.28
2019-02-25T08:48:57.133Z,11.48
2019-02-25T08:51:25.376Z,7.45
2019-02-25T08:53:53.615Z,11.68
2019-02-25T08:56:21.835Z,8.48
2019-02-25T08:58:50.087Z,7.40
2019-02-25T09:01:18.305Z,10.75
2019-02-25T09:03:46.558Z,9.60
2019-02-25T09:06:14.793Z,6.35
2019-02-25T09:08:43.019Z,9.80
2019-02-25T09:11:14.228Z,8.18
2019-02-25T09:13:41.272Z,9.10
2019-02-25T09:16:09.492Z,8.63
2019-02-25T09:18:37.728Z,7.00
2019-02-25T09:21:08.034Z,7.15
2019-02-25T09:23:35.919Z,8.35
2019-02-25T09:26:04.152Z,8.18
2019-02-25T09:28:32.390Z,9.03
2019-02-25T09:31:00.631Z,6.67
2019-02-25T09:33:28.861Z,7.58
2019-02-25T09:35:57.108Z,5.87
2019-02-25T09:38:25.352Z,7.65
2019-02-25T09:40:53.587Z,8.95
2019-02-25T09:43:21.820Z,9.18
2019-02-25T09:45:50.135Z,7.40
2019-02-25T09:48:18.360Z,6.85
2019-02-25T09:50:46.673Z,7.92
2019-02-25T09:53:14.916Z,6.55
2019-02-25T09:55:43.142Z,5.28
2019-02-25T09:58:11.383Z,8.05
2019-02-25T10:00:39.641Z,8.45
2019-02-25T10:03:07.892Z,8.50
2019-02-25T10:05:37.075Z,5.62
2019-02-25T10:08:05.313Z,6.00
2019-02-25T10:10:33.568Z,6.37
2019-02-25T10:13:01.779Z,6.72
2019-02-25T10:15:30.040Z,11.45
2019-02-25T10:17:58.274Z,9.60
2019-02-25T10:20:26.496Z,6.92
2019-02-25T10:22:54.760Z,8.30
2019-02-25T10:25:22.988Z,5.60
2019-02-25T10:27:51.234Z,6.22
2019-02-25T10:30:20.210Z,6.87
2019-02-25T10:32:48.440Z,7.80
2019-02-25T10:35:19.207Z,9.88
2019-02-25T10:37:47.486Z,6.90
2019-02-25T10:40:18.125Z,11.33
2019-02-25T10:42:45.688Z,10.08
2019-02-25T10:45:21.756Z,7.75
2019-02-25T10:47:51.671Z,9.73
2019-02-25T10:50:19.970Z,6.05
2019-02-25T10:52:49.435Z,6.33
2019-02-25T10:55:32.904Z,8.30
2019-02-25T10:58:02.105Z,5.42
2019-02-25T11:00:31.176Z,7.92
2019-02-25T11:02:59.418Z,7.25
2019-02-25T11:05:30.289Z,8.43
2019-02-25T11:07:57.697Z,6.92
2019-02-25T11:10:30.541Z,4.10
2019-02-25T11:12:59.918Z,8.93
2019-02-25T11:15:29.627Z,7.10
2019-02-25T11:17:57.888Z,5.67
2019-02-25T11:20:27.345Z,9.10
2019-02-25T11:22:56.147Z,5.42
2019-02-25T11:25:26.291Z,6.90
2019-02-25T11:27:54.332Z,16.57
2019-02-25T11:30:23.898Z,4.70
2019-02-25T11:32:55.063Z,7.72
2019-02-25T11:35:22.349Z,6.55
2019-02-25T11:37:51.981Z,4.65
2019-02-25T11:40:20.567Z,7.78
2019-02-25T11:42:49.243Z,6.20
2019-02-25T11:45:18.696Z,4.90
2019-02-25T11:47:46.954Z,8.28
2019-02-25T11:50:17.499Z,4.50
2019-02-25T11:52:45.726Z,7.17
2019-02-25T11:55:15.219Z,7.85
2019-02-25T11:57:43.503Z,4.90
2019-02-25T12:00:17.040Z,4.83
2019-02-25T12:02:45.280Z,4.92
2019-02-25T12:05:15.064Z,6.37
2019-02-25T12:07:43.355Z,4.87
2019-02-25T12:10:13.147Z,4.50
2019-02-25T12:12:41.376Z,7.62
2019-02-25T12:15:17.962Z,3.47
2019-02-25T12:17:46.244Z,6.15
2019-02-25T12:20:14.531Z,4.53
2019-02-25T12:22:42.767Z,5.62
2019-02-25T12:25:21.739Z,5.10
2019-02-25T12:27:49.989Z,2.87
2019-02-25T12:30:26.107Z,5.47
2019-02-25T12:35:21.901Z,7.87
2019-02-25T12:37:50.160Z,4.85
2019-02-25T12:40:18.375Z,5.03
2019-02-25T12:42:46.619Z,7.62
2019-02-25T12:45:15.492Z,2.52
2019-02-25T12:47:43.731Z,4.60
2019-02-25T12:50:20.673Z,2.30
2019-02-25T12:52:48.941Z,3.45
2019-02-25T12:55:18.114Z,3.98
2019-02-25T12:57:46.346Z,4.35
2019-02-25T13:00:18.531Z,5.20
2019-02-25T13:02:46.760Z,3.52
2019-02-25T13:05:16.868Z,4.47
2019-02-25T13:07:45.098Z,8.10
2019-02-25T13:10:14.977Z,5.00
2019-02-25T13:12:43.225Z,4.05
2019-02-25T13:15:19.606Z,6.22
2019-02-25T13:17:47.844Z,4.85
2019-02-25T13:20:16.233Z,5.33
2019-02-25T13:22:44.439Z,3.90
2019-02-25T13:25:21.486Z,3.67
2019-02-25T13:27:49.723Z,2.33
2019-02-25T13:30:18.305Z,2.87
2019-02-25T13:32:46.650Z,5.87
2019-02-25T13:35:15.529Z,1.35
2019-02-25T13:37:44.730Z,4.00
2019-02-25T13:40:17.093Z,0.93
2019-02-25T13:42:45.328Z,2.42
2019-02-25T13:45:17.115Z,2.37
2019-02-25T13:47:45.448Z,10.90
2019-02-25T13:50:15.087Z,1.12
2019-02-25T13:52:48.545Z,1.32
2019-02-25T13:55:15.482Z,3.85
2019-02-25T13:57:43.815Z,3.35
2019-02-25T14:00:15.490Z,3.08
2019-02-25T14:02:44.547Z,3.95
2019-02-25T14:05:12.894Z,1.85
2019-02-25T14:07:41.182Z,1.85
2019-02-25T14:10:11.655Z,4.78
2019-02-25T14:12:39.896Z,1.40
2019-02-25T14:15:10.164Z,3.37
2019-02-25T14:17:38.469Z,2.00
2019-02-25T14:20:10.023Z,3.60
2019-02-25T14:22:38.278Z,3.42
2019-02-25T14:25:08.836Z,2.17
2019-02-25T14:27:37.106Z,2.08
2019-02-25T14:30:09.413Z,3.90
2019-02-25T14:32:37.879Z,2.30
2019-02-25T14:35:07.891Z,2.12
2019-02-25T14:37:36.404Z,2.33
2019-02-25T14:40:08.696Z,4.17
2019-02-25T14:42:38.871Z,1.52
2019-02-25T14:45:10.096Z,3.05
2019-02-25T14:47:40.001Z,3.80
2019-02-25T14:50:14.620Z,1.70
2019-02-25T14:52:43.108Z,4.58
2019-02-25T14:55:13.195Z,23.70
2019-02-25T14:57:43.616Z,2.65
2019-02-25T15:00:26.861Z,3.10
2019-02-25T15:02:55.880Z,2.05
2019-02-25T15:05:24.487Z,3.10
2019-02-25T15:07:53.359Z,2.72
2019-02-25T15:10:26.632Z,3.83
2019-02-25T15:12:56.440Z,5.58
2019-02-25T15:15:23.285Z,3.47
2019-02-25T15:17:52.748Z,8.30
2019-02-25T15:20:23.445Z,8.95
2019-02-25T15:22:52.392Z,1.95
2019-02-25T15:25:21.203Z,3.42
2019-02-25T15:27:49.662Z,6.58
2019-02-25T15:30:28.214Z,2.47
2019-02-25T15:32:58.442Z,5.87
2019-02-25T15:35:29.223Z,9.35
2019-02-25T15:37:57.828Z,5.55
2019-02-25T15:40:27.241Z,5.05
2019-02-25T15:43:03.653Z,4.87
2019-02-25T15:48:02.358Z,5.67
2019-02-25T15:50:30.843Z,2.77
2019-02-25T15:53:02.557Z,4.28
2019-02-25T15:55:29.846Z,3.12
2019-02-25T15:57:58.289Z,3.10
2019-02-25T16:00:30.003Z,3.08
2019-02-25T16:02:58.373Z,2.67
2019-02-25T16:05:29.576Z,7.50
2019-02-25T16:07:59.943Z,1.75
2019-02-25T16:10:28.216Z,4.15
2019-02-25T16:12:57.835Z,3.67
2019-02-25T16:15:26.497Z,4.75
2019-02-25T16:17:54.749Z,5.17
2019-02-25T16:20:24.504Z,6.15
2019-02-25T16:22:56.314Z,4.70
2019-02-25T16:25:27.570Z,3.85
2019-02-25T16:27:56.775Z,9.98
2019-02-25T16:30:26.360Z,4.78
2019-02-25T16:32:55.020Z,4.53
2019-02-25T16:35:23.331Z,4.55
2019-02-25T16:37:54.971Z,4.78
2019-02-25T16:40:24.459Z,5.20
2019-02-25T16:42:54.983Z,6.00
2019-02-25T16:45:28.529Z,8.55
2019-02-25T16:47:55.858Z,3.42
2019-02-25T16:50:24.256Z,6.42
2019-02-25T16:52:52.572Z,2.25
2019-02-25T16:55:26.980Z,3.33
2019-02-25T16:57:53.551Z,3.02
2019-02-25T17:00:25.251Z,8.38
2019-02-25T17:02:53.488Z,9.03
2019-02-25T17:05:22.274Z,7.92
2019-02-25T17:07:50.766Z,8.00
2019-02-25T17:10:24.085Z,6.53
2019-02-25T17:12:52.121Z,4.60
2019-02-25T17:15:21.333Z,10.78
2019-02-25T17:17:49.571Z,6.05
2019-02-25T17:20:21.077Z,7.55
2019-02-25T17:22:49.476Z,11.78
2019-02-25T17:25:17.757Z,8.55
2019-02-25T17:27:45.988Z,7.58
2019-02-25T17:30:22.019Z,3.72
2019-02-25T17:32:51.616Z,7.97
2019-02-25T17:35:25.812Z,4.85
2019-02-25T17:37:55.504Z,4.22
2019-02-25T17:40:23.352Z,7.45
2019-02-25T17:42:53.753Z,12.55
2019-02-25T17:45:25.041Z,8.23
2019-02-25T17:47:58.312Z,9.80
2019-02-25T17:50:43.887Z,7.22
2019-02-25T17:53:12.182Z,12.05
2019-02-25T17:55:40.717Z,3.70
2019-02-25T17:58:09.094Z,7.37
2019-02-25T18:00:44.515Z,4.80
2019-02-25T18:03:12.856Z,6.67
2019-02-25T18:05:43.229Z,5.83
2019-02-25T18:08:13.296Z,7.62
2019-02-25T18:10:43.112Z,5.90
2019-02-25T18:13:11.745Z,8.75
2019-02-25T18:15:40.285Z,10.15
2019-02-25T18:18:11.775Z,8.35
2019-02-25T18:20:38.979Z,7.95
2019-02-25T18:23:07.495Z,11.95
2019-02-25T18:25:37.678Z,17.95
2019-02-25T18:28:08.250Z,17.52
2019-02-25T18:30:35.856Z,11.18
2019-02-25T18:33:05.271Z,7.95
2019-02-25T18:35:36.187Z,5.40
2019-02-25T18:38:06.556Z,3.22
2019-02-25T18:40:35.575Z,3.02
2019-02-25T18:43:04.437Z,5.58
2019-02-25T18:45:35.431Z,3.80
2019-02-25T18:48:03.570Z,4.28
2019-02-25T18:50:31.887Z,4.40
2019-02-25T18:53:01.408Z,4.75
2019-02-25T18:55:31.570Z,3.95
2019-02-25T18:57:59.786Z,4.33
2019-02-25T19:00:31.535Z,4.12
2019-02-25T19:03:00.353Z,3.65
2019-02-25T19:05:31.458Z,6.03
2019-02-25T19:07:59.872Z,3.45
2019-02-25T19:10:28.216Z,4.85
2019-02-25T19:12:58.666Z,6.08
2019-02-25T19:15:26.467Z,9.73
2019-02-25T19:17:54.725Z,6.05
2019-02-25T19:20:23.106Z,10.15
2019-02-25T19:22:51.379Z,8.98
2019-02-25T19:25:20.836Z,7.33
2019-02-25T19:27:50.130Z,10.20
2019-02-25T19:30:19.830Z,7.85
2019-02-25T19:32:49.626Z,8.10
2019-02-25T19:35:17.992Z,13.15
2019-02-25T19:37:46.807Z,6.67
2019-02-25T19:40:22.526Z,7.87
2019-02-25T19:42:51.594Z,10.30
2019-02-25T19:45:20.538Z,9.68
2019-02-25T19:47:48.866Z,10.50
2019-02-25T19:50:19.490Z,19.32
2019-02-25T19:52:47.862Z,24.85
2019-02-25T19:55:18.372Z,23.22
2019-02-25T19:57:48.517Z,18.92
2019-02-25T20:00:22.383Z,24.50
2019-02-25T20:02:50.979Z,20.95
2019-02-25T20:05:21.590Z,28.90
2019-02-25T20:07:49.396Z,29.50
2019-02-25T20:10:17.709Z,23.85
2019-02-25T20:12:45.966Z,22.70
2019-02-25T20:15:18.727Z,19.23
2019-02-25T20:17:48.350Z,21.90
2019-02-25T20:20:16.807Z,17.52
2019-02-25T20:22:45.042Z,13.15
2019-02-25T20:25:16.218Z,18.52
2019-02-25T20:27:44.534Z,14.55
2019-02-25T20:30:15.467Z,14.35
2019-02-25T20:32:43.909Z,15.03
2019-02-25T20:35:17.820Z,15.25
2019-02-25T20:37:50.973Z,11.70
2019-02-25T20:40:19.075Z,16.52
2019-02-25T20:42:49.072Z,10.35
2019-02-25T20:45:22.990Z,11.93
2019-02-25T20:47:50.557Z,11.20
2019-02-25T20:50:21.128Z,8.93
2019-02-25T20:52:49.360Z,8.55
2019-02-25T20:55:17.584Z,9.58
2019-02-25T20:57:45.912Z,12.13
2019-02-25T21:00:21.954Z,10.20
2019-02-25T21:02:50.226Z,9.68
2019-02-25T21:05:20.135Z,8.80
2019-02-25T21:07:50.467Z,9.98
2019-02-25T21:10:18.452Z,9.88
2019-02-25T21:12:46.785Z,11.08
2019-02-25T21:15:19.815Z,12.63
2019-02-25T21:17:48.096Z,10.60
2019-02-25T21:20:16.784Z,8.18
2019-02-25T21:22:45.029Z,13.32
2019-02-25T21:25:15.481Z,9.05
2019-02-25T21:27:43.753Z,8.58
2019-02-25T21:30:19.954Z,7.37
2019-02-25T21:35:18.288Z,8.30
2019-02-25T21:37:48.289Z,9.08
2019-02-25T21:40:20.106Z,10.28
2019-02-25T21:42:49.322Z,8.60
2019-02-25T21:45:20.301Z,8.98
2019-02-25T21:47:52.311Z,12.78
2019-02-25T21:50:19.493Z,11.55
2019-02-25T21:52:47.975Z,15.50
2019-02-25T21:55:18.118Z,13.30
2019-02-25T21:57:46.790Z,11.45
2019-02-25T22:00:20.288Z,11.33
2019-02-25T22:02:50.886Z,13.28
2019-02-25T22:05:21.302Z,9.33
2019-02-25T22:07:52.364Z,12.00
2019-02-25T22:10:19.796Z,9.48
2019-02-25T22:12:48.637Z,12.95
2019-02-25T22:15:22.131Z,11.33
2019-02-25T22:17:50.682Z,13.68
2019-02-25T22:20:22.489Z,7.72
2019-02-25T22:22:54.466Z,9.13
2019-02-25T22:25:23.624Z,11.53
2019-02-25T22:27:51.997Z,11.18
2019-02-25T22:30:20.223Z,10.82
2019-02-25T22:32:49.993Z,9.90
2019-02-25T22:35:18.187Z,13.53
2019-02-25T22:37:49.231Z,12.00
2019-02-25T22:40:17.505Z,10.88
2019-02-25T22:42:47.893Z,10.32
2019-02-25T22:45:22.024Z,13.08
2019-02-25T22:47:50.286Z,14.03
2019-02-25T22:50:18.553Z,11.03
2019-02-25T22:52:46.791Z,9.30
2019-02-25T22:55:17.673Z,10.15
2019-02-25T22:57:45.945Z,11.90
2019-02-25T23:00:43.214Z,11.38
2019-02-25T23:03:15.208Z,12.90
2019-02-25T23:05:43.650Z,11.38
2019-02-25T23:08:13.082Z,10.60
2019-02-25T23:10:42.555Z,20.72
2019-02-25T23:13:11.657Z,15.38
2019-02-25T23:15:42.037Z,13.72
2019-02-25T23:18:11.990Z,13.48
2019-02-25T23:20:39.841Z,10.65
2019-02-25T23:23:08.053Z,14.25
2019-02-25T23:25:36.309Z,11.55
2019-02-25T23:28:04.540Z,13.95
2019-02-25T23:30:32.793Z,14.30
2019-02-25T23:33:01.025Z,13.53
2019-02-25T23:35:29.275Z,10.08
2019-02-25T23:37:58.603Z,11.05
2019-02-25T23:40:31.287Z,12.43
2019-02-25T23:42:58.292Z,11.73
2019-02-25T23:45:26.528Z,16.17
2019-02-25T23:47:57.681Z,11.05
2019-02-25T23:50:25.674Z,12.98
2019-02-25T23:52:54.706Z,11.85
2019-02-25T23:55:24.998Z,10.05
2019-02-25T23:57:52.916Z,12.75
